logo
Search for airport 
image banner adimage banner adimage banner ad
image banner ad

FA0401 - Silver Water Holdings Helistop

Located in , South Africa

ICAO - , IATA -

Data provided by Airmate  

General information

Coordinates: S25°16'44" E30°59'55"
Elevation is 3107 feet MSL.
 
View others Airports in Mpumalanga

Operational data

Special qualification required
Current time UTC:
Current local time:
METAR: FAKN 171900Z AUTO 08006KT //// // ////// 15/07 Q1024
View NOTAMs / SUP AIP / TFR affecting this airport [VIEW]
Communications frequencies: [VIEW]

Runways:

Airport contact information

Address: South Africa

Satellite view of FA0401